Data for 01/01/2016

Time Sea-Level Adjusted Pressure Absolute Pressure Temperature Relative Humidity Dew Point   
(mb) (inHg) (mb) (inHg) (C) (F) (%) (C) (F)
00:05 1030 30.42 859 25.37 -13.2 8.3 77 -16.4 2.5
00:10 1030 30.42 859 25.37 -12.8 8.9 76 -16.2 2.9
00:15 1030 30.42 859 25.37 -12.4 9.8 74 -16.1 3.1
00:20 1030 30.42 859 25.37 -11.9 10.6 73 -15.9 3.4
00:25 1030 30.42 859 25.37 -11.7 10.9 71 -15.9 3.3
00:30 1030 30.42 859 25.37 -12 10.3 73 -15.9 3.3
00:35 1030 30.42 859 25.37 -12.3 9.9 73 -16.2 2.9
00:40 1030 30.42 859 25.37 -12.6 9.3 75 -16.2 2.9
00:45 1030 30.42 859 25.37 -12.5 9.6 74 -16.2 2.9
00:50 1030 30.42 859 25.37 -12.7 9.2 76 -16.1 3
00:55 1030 30.42 859 25.37 -13 8.5 76 -16.5 2.4
01:00 1030 30.42 859 25.37 -13.5 7.6 78 -16.5 2.2
01:05 1030 30.42 859 25.37 -13.5 7.7 77 -16.6 2
01:10 1030 30.42 859 25.37 -13.8 7.3 79 -16.7 2
01:15 1030 30.42 859 25.37 -13.9 6.9 80 -16.6 2.1
01:20 1030 30.42 859 25.37 -13.7 7.4 80 -16.5 2.3
01:25 1030 30.42 859 25.37 -13.6 7.5 80 -16.3 2.6
01:30 1030 30.42 859 25.37 -13.3 8 79 -16.2 2.8
01:35 1030 30.42 859 25.37 -13.5 7.8 79 -16.4 2.5
01:40 1030 30.42 859 25.37 -13.7 7.4 81 -16.3 2.7
01:45 1030 30.42 859 25.37 -13.6 7.5 80 -16.4 2.5
01:50 1030 30.42 859 25.37 -13.8 7.2 80 -16.5 2.3
01:55 1030 30.42 859 25.37 -13.6 7.5 77 -16.8 1.8
02:00 1030 30.42 859 25.37 -13.7 7.4 79 -16.6 2.1
02:05 1030 30.42 859 25.37 -14 6.8 78 -17.1 1.2
02:10 1030 30.42 859 25.37 -14.6 5.7 83 -17 1.5
02:15 1030 30.42 859 25.37 -14.1 6.7 81 -16.7 2
02:20 1030 30.42 859 25.37 -13.7 7.3 77 -16.9 1.6
02:25 1030 30.42 859 25.37 -14.3 6.3 78 -17.3 0.9
02:30 1030 30.42 859 25.37 -14.9 5.1 81 -17.5 0.5
02:35 1030 30.42 860 25.4 -14.9 5.3 82 -17.2 1
02:40 1030 30.42 860 25.4 -14.4 6.1 81 -17 1.4
02:45 1030 30.42 860 25.4 -14.7 5.6 79 -17.5 0.5
02:50 1030 30.42 860 25.4 -15 5 81 -17.7 0.2
02:55 1030 30.42 860 25.4 -14.6 5.7 81 -17.2 1.1
03:00 1030 30.42 860 25.4 -14.3 6.3 81 -16.9 1.5
03:05 1030 30.42 860 25.4 -13.9 7 79 -16.8 1.7
03:10 1030 30.42 860 25.4 -13.8 7.1 78 -17 1.5
03:15 1030 30.42 860 25.4 -14.4 6.1 78 -17.4 0.8
03:20 1030 30.42 860 25.4 -14.4 6.1 82 -16.8 1.7
03:25 1030 30.42 860 25.4 -14.4 6.2 82 -16.9 1.6
03:30 1031 30.45 860 25.4 -14.5 5.9 81 -17.1 1.3
03:35 1031 30.45 860 25.4 -14.5 6 83 -16.8 1.7
03:40 1031 30.45 860 25.4 -14.9 5.1 79 -17.8 0
03:45 1031 30.45 860 25.4 -15.2 4.7 82 -17.6 0.3
03:50 1031 30.45 860 25.4 -14.9 5.3 80 -17.5 0.4
03:55 1031 30.45 860 25.4 -14.9 5.2 81 -17.4 0.7
04:00 1031 30.45 860 25.4 -14.8 5.4 81 -17.4 0.7
04:05 1031 30.45 860 25.4 -15 5 82 -17.5 0.5
04:10 1031 30.45 860 25.4 -14.9 5.1 81 -17.5 0.5
04:15 1031 30.45 860 25.4 -15 5 81 -17.6 0.4
04:20 1031 30.45 860 25.4 -14.6 5.7 81 -17.1 1.2
04:25 1031 30.45 860 25.4 -14.2 6.5 80 -16.8 1.7
04:30 1031 30.45 860 25.4 -14 6.7 80 -16.8 1.7
04:35 1031 30.45 860 25.4 -14.1 6.7 80 -16.8 1.8
04:40 1031 30.45 860 25.4 -14.2 6.4 81 -16.8 1.8
04:45 1031 30.45 860 25.4 -14.5 6 81 -17.1 1.3
04:50 1031 30.45 860 25.4 -14.5 5.9 80 -17.2 1.1
04:55 1030 30.42 860 25.4 -14.7 5.5 81 -17.3 0.8
05:00 1030 30.42 860 25.4 -14.8 5.3 82 -17.2 1
05:05 1030 30.42 860 25.4 -14.7 5.5 82 -17.1 1.1
05:10 1030 30.42 860 25.4 -14.6 5.7 81 -17.1 1.1
05:15 1030 30.42 860 25.4 -14.8 5.4 81 -17.3 0.9
05:20 1030 30.42 860 25.4 -14.9 5.2 82 -17.3 0.8
05:25 1030 30.42 860 25.4 -15 5.1 82 -17.3 0.8
05:30 1030 30.42 860 25.4 -15 5 82 -17.4 0.7
05:35 1030 30.42 860 25.4 -15 4.9 83 -17.3 0.8
05:40 1030 30.42 859 25.37 -15 5 83 -17.3 0.9
05:45 1030 30.42 859 25.37 -15 4.9 82 -17.4 0.7
05:50 1030 30.42 859 25.37 -15.1 4.8 82 -17.6 0.4
05:55 1030 30.42 859 25.37 -15.2 4.6 82 -17.6 0.3
06:00 1030 30.42 859 25.37 -15.3 4.6 82 -17.6 0.3
06:05 1030 30.42 859 25.37 -15.2 4.6 82 -17.6 0.3
06:10 1030 30.42 859 25.37 -15.3 4.5 83 -17.6 0.3
06:15 1030 30.42 859 25.37 -15.3 4.5 83 -17.6 0.3
06:20 1030 30.42 859 25.37 -15.5 4.2 83 -17.8 0
06:25 1030 30.42 859 25.37 -15.7 3.8 83 -17.9 -0.3
06:30 1030 30.42 859 25.37 -15.7 3.7 82 -18 -0.5
06:35 1030 30.42 859 25.37 -15.6 4 83 -17.9 -0.2
06:40 1030 30.42 859 25.37 -15.5 4 82 -17.9 -0.3
06:45 1030 30.42 859 25.37 -15.6 4 83 -17.8 -0.1
06:50 1030 30.42 859 25.37 -15.4 4.4 82 -17.7 0.1
06:55 1030 30.42 859 25.37 -15.3 4.5 82 -17.6 0.2
07:00 1030 30.42 859 25.37 -15.4 4.4 81 -17.9 -0.2
07:05 1030 30.42 859 25.37 -15.7 3.8 81 -18.2 -0.8
07:10 1030 30.42 859 25.37 -15.9 3.3 82 -18.3 -0.9
07:15 1030 30.42 859 25.37 -15.8 3.5 83 -18.2 -0.7
07:20 1030 30.42 859 25.37 -15.6 3.9 83 -17.9 -0.2
07:25 1030 30.42 859 25.37 -15.4 4.3 82 -17.8 -0.1
07:30 1030 30.42 859 25.37 -15.6 3.9 81 -18.2 -0.8
07:35 1030 30.42 859 25.37 -16.1 3.1 82 -18.4 -1.1
07:40 1030 30.42 859 25.37 -16.2 2.8 83 -18.5 -1.3
07:45 1030 30.42 859 25.37 -16.2 2.9 83 -18.4 -1.1
07:50 1030 30.42 859 25.37 -15.8 3.7 83 -18 -0.3
07:55 1030 30.42 859 25.37 -15.8 3.6 82 -18.2 -0.7
08:00 1030 30.42 859 25.37 -16 3.3 82 -18.3 -1
08:05 1030 30.42 859 25.37 -15.9 3.3 82 -18.4 -1
08:10 1030 30.42 859 25.37 -16 3.3 82 -18.4 -1.1
08:15 1030 30.42 859 25.37 -15.8 3.6 81 -18.3 -1
08:20 1030 30.42 859 25.37 -15.8 3.5 82 -18.3 -0.9
08:25 1030 30.42 860 25.4 -15.9 3.5 82 -18.2 -0.8
08:30 1030 30.42 860 25.4 -15.9 3.4 82 -18.3 -1
08:35 1030 30.42 860 25.4 -16.1 3.1 83 -18.3 -1
08:40 1030 30.42 859 25.37 -15.8 3.5 83 -18.1 -0.7
08:45 1030 30.42 859 25.37 -15.9 3.4 82 -18.3 -0.9
08:50 1030 30.42 859 25.37 -16.2 2.9 82 -18.5 -1.4
08:55 1030 30.42 859 25.37 -16.2 2.8 82 -18.6 -1.5
09:00 1030 30.42 859 25.37 -16 3.2 82 -18.4 -1.1
09:05 1030 30.42 859 25.37 -16 3.3 82 -18.4 -1
09:10 1030 30.42 859 25.37 -16.1 3.1 82 -18.5 -1.3
09:15 1030 30.42 859 25.37 -16.2 2.9 83 -18.5 -1.3
09:20 1030 30.42 859 25.37 -15.9 3.4 82 -18.3 -0.9
09:25 1030 30.42 859 25.37 -15.7 3.7 82 -18.1 -0.6
09:30 1030 30.42 859 25.37 -15.5 4.1 79 -18.3 -1
09:35 1030 30.42 859 25.37 -15.6 4 79 -18.5 -1.2
09:40 1030 30.42 859 25.37 -15.4 4.3 78 -18.4 -1.2
09:45 1030 30.42 859 25.37 -15.3 4.5 78 -18.3 -1
09:50 1030 30.42 859 25.37 -15 4.9 76 -18.3 -0.9
09:55 1030 30.42 860 25.4 -14.9 5.2 77 -18.1 -0.6
10:00 1030 30.42 860 25.4 -14.9 5.1 76 -18.3 -0.9
10:05 1030 30.42 860 25.4 -14.9 5.3 76 -18.2 -0.8
10:10 1030 30.42 860 25.4 -14.4 6 74 -18 -0.5
10:15 1030 30.42 860 25.4 -14 6.8 73 -17.8 -0
10:20 1030 30.42 860 25.4 -13.6 7.6 72 -17.6 0.3
10:25 1030 30.42 860 25.4 -13 8.6 70 -17.4 0.7
10:30 1030 30.42 860 25.4 -12.6 9.2 70 -17.1 1.2
10:35 1030 30.42 860 25.4 -12.2 10 68 -17 1.3
10:40 1030 30.42 860 25.4 -12.3 9.9 67 -17.1 1.2
10:45 1031 30.45 860 25.4 -12.4 9.7 69 -16.9 1.5
10:50 1031 30.45 860 25.4 -12.5 9.6 69 -17 1.4
10:55 1031 30.45 860 25.4 -12.4 9.8 69 -16.9 1.5
11:00 1031 30.45 860 25.4 -11.9 10.7 67 -16.7 1.9
11:05 1031 30.45 860 25.4 -11.1 12 64 -16.6 2.1
11:10 1031 30.45 860 25.4 -10.8 12.5 65 -16.2 2.8
11:15 1031 30.45 860 25.4 -10.5 13.1 65 -16 3.2
11:20 1031 30.45 860 25.4 -10.3 13.6 63 -15.9 3.3
11:25 1031 30.45 860 25.4 -10.3 13.5 64 -15.8 3.6
11:30 1031 30.45 860 25.4 -9.8 14.4 60 -16.1 3.1
11:35 1031 30.45 860 25.4 -9.6 14.8 61 -15.8 3.5
11:40 1031 30.45 860 25.4 -10 14.1 63 -15.7 3.7
11:45 1031 30.45 860 25.4 -10.3 13.5 64 -15.9 3.4
11:50 1031 30.45 860 25.4 -9.6 14.7 60 -15.9 3.4
11:55 1031 30.45 860 25.4 -9.4 15.1 61 -15.6 3.9
12:00 1031 30.45 860 25.4 -9.5 14.9 60 -15.9 3.3
12:05 1030 30.42 860 25.4 -9.1 15.6 59 -15.8 3.6
12:10 1030 30.42 860 25.4 -9.2 15.5 60 -15.6 3.9
12:15 1030 30.42 860 25.4 -9.1 15.6 58 -15.9 3.4
12:20 1030 30.42 860 25.4 -8.5 16.6 57 -15.7 3.8
12:25 1030 30.42 859 25.37 -8.5 16.7 56 -15.8 3.6
12:30 1030 30.42 859 25.37 -8.7 16.3 58 -15.6 3.9
12:35 1030 30.42 859 25.37 -8.8 16.2 59 -15.5 4.1
12:40 1030 30.42 859 25.37 -8.9 16.1 58 -15.7 3.7
12:45 1030 30.42 859 25.37 -8.7 16.3 59 -15.4 4.2
12:50 1030 30.42 859 25.37 -8.6 16.6 58 -15.4 4.3
12:55 1030 30.42 859 25.37 -8.5 16.8 57 -15.5 4.1
13:00 1030 30.42 859 25.37 -8.5 16.7 57 -15.5 4.1
13:05 1030 30.42 859 25.37 -8.5 16.7 58 -15.3 4.5
13:10 1030 30.42 859 25.37 -8.6 16.6 57 -15.5 4
13:15 1030 30.42 859 25.37 -8.5 16.8 59 -15.2 4.6
13:20 1030 30.42 859 25.37 -8.4 16.8 55 -15.8 3.5
13:25 1030 30.42 859 25.37 -8.2 17.2 56 -15.5 4.2
13:30 1029 30.39 859 25.37 -8.4 16.8 57 -15.5 4.1
13:35 1029 30.39 859 25.37 -8.6 16.5 58 -15.5 4.1
13:40 1029 30.39 858 25.34 -8.7 16.3 60 -15.1 4.8
13:45 1029 30.39 858 25.34 -8.2 17.2 56 -15.6 3.9
13:50 1029 30.39 858 25.34 -7.9 17.8 56 -15.2 4.6
13:55 1029 30.39 858 25.34 -8.1 17.5 57 -15.2 4.6
14:00 1029 30.39 858 25.34 -7.8 18 56 -15.1 4.8
14:05 1029 30.39 858 25.34 -7.8 17.9 55 -15.4 4.3
14:10 1029 30.39 858 25.34 -7.9 17.8 55 -15.4 4.2
14:15 1029 30.39 858 25.34 -8 17.6 56 -15.4 4.3
14:20 1029 30.39 858 25.34 -8.7 16.3 60 -15.2 4.6
14:25 1029 30.39 858 25.34 -8.3 17 56 -15.7 3.8
14:30 1029 30.39 858 25.34 -8.8 16.1 59 -15.4 4.2
14:35 1029 30.39 858 25.34 -8.5 16.8 59 -15.1 4.8
14:40 1029 30.39 858 25.34 -10.1 13.7 65 -15.5 4
14:45 1029 30.39 858 25.34 -9.7 14.5 63 -15.6 3.9
14:50 1029 30.39 858 25.34 -9.5 14.9 62 -15.6 4
14:55 1029 30.39 858 25.34 -8.5 16.6 56 -15.7 3.7
15:00 1029 30.39 858 25.34 -8.1 17.5 56 -15.3 4.4
15:05 1028 30.36 858 25.34 -8.3 17 57 -15.3 4.4
15:10 1029 30.39 858 25.34 -8.3 17.1 57 -15.3 4.4
15:15 1029 30.39 858 25.34 -9.1 15.6 60 -15.6 3.9
15:20 1029 30.39 858 25.34 -8.4 16.9 58 -15.3 4.4
15:25 1028 30.36 858 25.34 -7.9 17.8 55 -15.4 4.2
15:30 1028 30.36 858 25.34 -7.9 17.8 56 -15.3 4.4
15:35 1029 30.39 858 25.34 -7.6 18.3 55 -15.1 4.8
15:40 1029 30.39 858 25.34 -7.6 18.3 53 -15.6 3.8
15:45 1029 30.39 858 25.34 -7.4 18.7 52 -15.7 3.8
15:50 1029 30.39 858 25.34 -7.6 18.4 53 -15.6 3.8
15:55 1029 30.39 858 25.34 -7.6 18.4 55 -15.2 4.7
16:00 1029 30.39 858 25.34 -7.5 18.5 53 -15.5 4.2
16:05 1029 30.39 858 25.34 -7.4 18.6 53 -15.4 4.2
16:10 1029 30.39 858 25.34 -7.4 18.8 52 -15.6 3.9
16:15 1029 30.39 858 25.34 -7.8 17.9 55 -15.3 4.4
16:20 1029 30.39 858 25.34 -8.1 17.5 55 -15.6 3.9
16:25 1029 30.39 858 25.34 -8 17.6 55 -15.5 4.1
16:30 1029 30.39 858 25.34 -8 17.6 55 -15.6 4
16:35 1029 30.39 858 25.34 -7.9 17.9 54 -15.6 3.9
16:40 1029 30.39 858 25.34 -8 17.7 56 -15.4 4.3
16:45 1029 30.39 858 25.34 -8.3 17.1 57 -15.5 4.1
16:50 1029 30.39 858 25.34 -8.4 16.9 56 -15.6 4
16:55 1029 30.39 858 25.34 -8.9 16.1 59 -15.5 4.1
17:00 1029 30.39 858 25.34 -9.2 15.4 60 -15.7 3.8
17:05 1029 30.39 858 25.34 -9.4 15.1 60 -15.7 3.7
17:10 1029 30.39 858 25.34 -9.5 14.9 60 -15.9 3.3
17:15 1029 30.39 858 25.34 -9.4 15.2 60 -15.8 3.5
17:20 1029 30.39 858 25.34 -9.8 14.4 62 -15.7 3.7
17:25 1029 30.39 858 25.34 -10 14 63 -15.8 3.5
17:30 1028 30.36 858 25.34 -9.9 14.3 61 -16 3.2
17:35 1028 30.36 858 25.34 -9.7 14.5 60 -16.1 3.1
17:40 1028 30.36 858 25.34 -10.2 13.6 65 -15.6 3.8
17:45 1029 30.39 858 25.34 -11.1 12 69 -15.8 3.6
17:50 1029 30.39 858 25.34 -11.6 11.1 71 -15.9 3.4
17:55 1029 30.39 858 25.34 -11.8 10.9 71 -16 3.3
18:00 1028 30.36 858 25.34 -11.8 10.7 71 -16 3.1
18:05 1028 30.36 858 25.34 -11.7 10.9 70 -16.1 3.1
18:10 1028 30.36 858 25.34 -11.8 10.8 71 -16.1 3
18:15 1028 30.36 858 25.34 -11.9 10.6 71 -16.2 2.8
18:20 1028 30.36 858 25.34 -11.8 10.7 71 -16.2 2.9
18:25 1028 30.36 858 25.34 -11.9 10.6 70 -16.2 2.8
18:30 1028 30.36 858 25.34 -12 10.4 71 -16.3 2.7
18:35 1028 30.36 857 25.31 -12.4 9.8 73 -16.2 2.8
18:40 1028 30.36 857 25.31 -12.6 9.4 74 -16.3 2.7
18:45 1028 30.36 858 25.34 -12.6 9.4 74 -16.2 2.8
18:50 1028 30.36 858 25.34 -12.4 9.7 74 -16.2 2.8
18:55 1028 30.36 857 25.31 -12.5 9.4 74 -16.2 2.8
19:00 1028 30.36 857 25.31 -12.7 9.1 74 -16.4 2.4
19:05 1028 30.36 857 25.31 -13.2 8.3 76 -16.5 2.3
19:10 1028 30.36 857 25.31 -13.4 7.9 76 -16.7 2
19:15 1028 30.36 857 25.31 -13.5 7.7 77 -16.7 1.9
19:20 1028 30.36 857 25.31 -13.3 8 78 -16.4 2.5
19:25 1028 30.36 857 25.31 -13.2 8.2 78 -16.4 2.6
19:30 1028 30.36 857 25.31 -13.3 8 78 -16.4 2.5
19:35 1028 30.36 857 25.31 -13.2 8.3 78 -16.3 2.6
19:40 1028 30.36 857 25.31 -13.1 8.4 77 -16.3 2.7
19:45 1028 30.36 857 25.31 -13.2 8.3 78 -16.3 2.7
19:50 1028 30.36 857 25.31 -13.1 8.5 77 -16.3 2.6
19:55 1028 30.36 857 25.31 -13.2 8.2 78 -16.3 2.6
20:00 1028 30.36 857 25.31 -13.1 8.5 76 -16.4 2.4
20:05 1028 30.36 857 25.31 -13.1 8.4 76 -16.5 2.2
20:10 1028 30.36 857 25.31 -13.4 8 77 -16.6 2.1
20:15 1028 30.36 857 25.31 -13.4 8 77 -16.5 2.2
20:20 1028 30.36 857 25.31 -13.3 8.1 78 -16.4 2.5
20:25 1028 30.36 857 25.31 -13.4 8 77 -16.5 2.3
20:30 1028 30.36 857 25.31 -13.4 7.9 77 -16.6 2.1
20:35 1028 30.36 857 25.31 -13.4 7.8 77 -16.7 2
20:40 1028 30.36 857 25.31 -13.4 8 78 -16.4 2.4
20:45 1028 30.36 857 25.31 -12.9 8.7 76 -16.3 2.7
20:50 1027 30.33 857 25.31 -12.5 9.5 75 -16.1 3
20:55 1027 30.33 857 25.31 -12.6 9.4 75 -16.1 3.1
21:00 1027 30.33 857 25.31 -12.5 9.5 77 -15.8 3.6
21:05 1027 30.33 857 25.31 -12.8 9.1 78 -15.8 3.6
21:10 1027 30.33 857 25.31 -12.7 9.1 78 -15.8 3.6
21:15 1027 30.33 856 25.28 -12.7 9.1 78 -15.7 3.7
21:20 1027 30.33 856 25.28 -13 8.5 80 -15.8 3.5
21:25 1027 30.33 856 25.28 -12.9 8.7 79 -15.9 3.3
21:30 1027 30.33 856 25.28 -13 8.7 78 -16 3.2
21:35 1027 30.33 856 25.28 -13 8.7 77 -16.1 2.9
21:40 1027 30.33 856 25.28 -13.2 8.2 78 -16.3 2.6
21:45 1027 30.33 856 25.28 -13.2 8.2 77 -16.5 2.4
21:50 1027 30.33 856 25.28 -13.3 8 77 -16.6 2.1
21:55 1027 30.33 856 25.28 -13.6 7.6 78 -16.7 2
22:00 1027 30.33 856 25.28 -13.8 7.2 78 -16.9 1.6
22:05 1027 30.33 856 25.28 -13.7 7.3 79 -16.6 2.2
22:10 1027 30.33 856 25.28 -13.5 7.8 78 -16.5 2.4
22:15 1027 30.33 856 25.28 -13.5 7.7 78 -16.6 2.1
22:20 1027 30.33 856 25.28 -13.5 7.8 77 -16.6 2.1
22:25 1027 30.33 856 25.28 -13.7 7.4 80 -16.4 2.5
22:30 1027 30.33 856 25.28 -13.7 7.4 80 -16.4 2.4
22:35 1027 30.33 856 25.28 -13.6 7.5 80 -16.4 2.5
22:40 1027 30.33 856 25.28 -13.9 7 80 -16.6 2.1
22:45 1027 30.33 856 25.28 -14.1 6.6 82 -16.5 2.3
22:50 1027 30.33 856 25.28 -14 6.8 82 -16.5 2.3
22:55 1027 30.33 856 25.28 -13.9 7 81 -16.5 2.4
23:00 1027 30.33 856 25.28 -13.8 7.2 81 -16.4 2.5
23:05 1027 30.33 856 25.28 -13.7 7.4 81 -16.3 2.6
23:10 1027 30.33 856 25.28 -13.5 7.7 80 -16.2 2.8
23:15 1027 30.33 856 25.28 -13.8 7.1 78 -16.9 1.5
23:20 1027 30.33 856 25.28 -14.4 6.1 79 -17.2 1
23:25 1027 30.33 856 25.28 -14.5 5.9 79 -17.4 0.7
23:30 1027 30.33 856 25.28 -14.6 5.8 81 -17.2 1
23:35 1027 30.33 856 25.28 -14.7 5.6 80 -17.4 0.6
23:40 1027 30.33 856 25.28 -14.8 5.4 81 -17.4 0.7
23:45 1027 30.33 856 25.28 -14.8 5.4 81 -17.3 0.9
23:50 1027 30.33 856 25.28 -14.8 5.5 81 -17.4 0.8
23:55 1027 30.33 856 25.28 -14.8 5.3 80 -17.5 0.4
24:00 1027 30.33 856 25.28 -15.1 4.7 80 -17.8 -0